Terminal Aerodrome Forecast
Issued by NWS St Louis, MO

Home | Current Version | Previous Version | Text Only | Print | Product List | Glossary On
Versions: 1 2 3 4 5 6 7 8 9 10 11 12 13 14
000
FTUS43 KLSX 311100
TAFCOU
TAF
KCOU 311121Z 3112/0112 18005KT P6SM OVC100
     FM311500 19006KT 6SM -RA SCT025 OVC050
     FM312100 12007KT 3SM -RA OVC025
     FM010800 13005KT 2SM RA SCT009 OVC015=

USA.gov is the U.S. government's official web portal to all federal, state and local government web resources and services.